sensor_id;sensor_type;location;lat;lon;timestamp;pressure;altitude;pressure_sealevel;temperature;humidity
50682;BME280;36779;52.168;20.878;2022-09-03T00:00:18;101060.09;;;9.06;52.32
50682;BME280;36779;52.168;20.878;2022-09-03T00:03:10;101059.58;;;9.02;52.40
50682;BME280;36779;52.168;20.878;2022-09-03T00:05:47;101060.37;;;8.99;52.49
50682;BME280;36779;52.168;20.878;2022-09-03T00:08:22;101054.64;;;8.98;52.44
50682;BME280;36779;52.168;20.878;2022-09-03T00:11:00;101055.23;;;9.01;52.80
50682;BME280;36779;52.168;20.878;2022-09-03T00:13:34;101059.58;;;9.04;52.82
50682;BME280;36779;52.168;20.878;2022-09-03T00:16:07;101060.04;;;9.07;52.69
50682;BME280;36779;52.168;20.878;2022-09-03T00:18:46;101058.71;;;9.06;52.76
50682;BME280;36779;52.168;20.878;2022-09-03T00:21:19;101058.86;;;9.04;52.76
50682;BME280;36779;52.168;20.878;2022-09-03T00:23:50;101056.82;;;9.00;52.80
50682;BME280;36779;52.168;20.878;2022-09-03T00:26:26;101057.00;;;8.93;52.82
50682;BME280;36779;52.168;20.878;2022-09-03T00:29:00;101053.38;;;8.88;52.81
50682;BME280;36779;52.168;20.878;2022-09-03T00:31:33;101050.82;;;8.85;52.90
50682;BME280;36779;52.168;20.878;2022-09-03T00:34:10;101050.85;;;8.80;52.97
50682;BME280;36779;52.168;20.878;2022-09-03T00:36:42;101051.98;;;8.76;52.95
50682;BME280;36779;52.168;20.878;2022-09-03T00:39:12;101051.89;;;8.71;52.98
50682;BME280;36779;52.168;20.878;2022-09-03T00:41:51;101054.12;;;8.71;53.25
50682;BME280;36779;52.168;20.878;2022-09-03T00:44:35;101057.23;;;8.79;53.41
50682;BME280;36779;52.168;20.878;2022-09-03T00:47:11;101058.65;;;8.84;53.58
50682;BME280;36779;52.168;20.878;2022-09-03T00:49:51;101058.39;;;8.84;53.35
50682;BME280;36779;52.168;20.878;2022-09-03T00:52:33;101062.67;;;8.85;53.59
50682;BME280;36779;52.168;20.878;2022-09-03T00:55:15;101061.37;;;8.90;53.55
50682;BME280;36779;52.168;20.878;2022-09-03T00:57:57;101063.41;;;8.85;53.39
50682;BME280;36779;52.168;20.878;2022-09-03T01:00:32;101067.83;;;8.77;53.49
50682;BME280;36779;52.168;20.878;2022-09-03T01:03:06;101067.38;;;8.70;53.42
50682;BME280;36779;52.168;20.878;2022-09-03T01:05:44;101069.23;;;8.63;53.67
50682;BME280;36779;52.168;20.878;2022-09-03T01:08:38;101066.86;;;8.55;53.47
50682;BME280;36779;52.168;20.878;2022-09-03T01:11:23;101062.80;;;8.47;53.52
50682;BME280;36779;52.168;20.878;2022-09-03T01:14:05;101065.98;;;8.41;53.70
50682;BME280;36779;52.168;20.878;2022-09-03T01:16:42;101065.62;;;8.37;53.70
50682;BME280;36779;52.168;20.878;2022-09-03T01:19:33;101064.75;;;8.32;53.73
50682;BME280;36779;52.168;20.878;2022-09-03T01:22:25;101064.04;;;8.28;53.87
50682;BME280;36779;52.168;20.878;2022-09-03T01:25:11;101065.99;;;8.26;53.78
50682;BME280;36779;52.168;20.878;2022-09-03T01:27:56;101069.89;;;8.28;53.93
50682;BME280;36779;52.168;20.878;2022-09-03T01:30:26;101069.40;;;8.30;53.97
50682;BME280;36779;52.168;20.878;2022-09-03T01:33:03;101067.13;;;8.29;54.03
50682;BME280;36779;52.168;20.878;2022-09-03T01:35:40;101063.55;;;8.28;54.02
50682;BME280;36779;52.168;20.878;2022-09-03T01:38:20;101060.96;;;8.24;54.02
50682;BME280;36779;52.168;20.878;2022-09-03T01:40:59;101062.81;;;8.22;54.20
50682;BME280;36779;52.168;20.878;2022-09-03T01:43:55;101058.00;;;8.24;54.40
50682;BME280;36779;52.168;20.878;2022-09-03T01:46:35;101059.77;;;8.24;54.31
50682;BME280;36779;52.168;20.878;2022-09-03T01:49:14;101055.41;;;8.17;54.36
50682;BME280;36779;52.168;20.878;2022-09-03T01:51:55;101058.19;;;8.09;54.20
50682;BME280;36779;52.168;20.878;2022-09-03T01:54:50;101057.95;;;8.01;54.38
50682;BME280;36779;52.168;20.878;2022-09-03T01:57:39;101061.23;;;7.96;54.40
50682;BME280;36779;52.168;20.878;2022-09-03T02:00:15;101056.96;;;7.92;54.41
50682;BME280;36779;52.168;20.878;2022-09-03T02:02:46;101053.86;;;7.92;54.56
50682;BME280;36779;52.168;20.878;2022-09-03T02:05:17;101052.00;;;7.91;54.61
50682;BME280;36779;52.168;20.878;2022-09-03T02:07:50;101050.81;;;7.92;54.68
50682;BME280;36779;52.168;20.878;2022-09-03T02:10:23;101049.38;;;7.98;54.85
50682;BME280;36779;52.168;20.878;2022-09-03T02:12:58;101050.80;;;7.98;54.75
50682;BME280;36779;52.168;20.878;2022-09-03T02:15:29;101049.75;;;7.94;54.79
50682;BME280;36779;52.168;20.878;2022-09-03T02:18:02;101040.92;;;7.89;54.92
50682;BME280;36779;52.168;20.878;2022-09-03T02:20:33;101036.61;;;7.86;54.92
50682;BME280;36779;52.168;20.878;2022-09-03T02:23:02;101037.76;;;7.83;55.01
50682;BME280;36779;52.168;20.878;2022-09-03T02:25:35;101036.23;;;7.78;54.89
50682;BME280;36779;52.168;20.878;2022-09-03T02:28:06;101035.10;;;7.72;54.99
50682;BME280;36779;52.168;20.878;2022-09-03T02:30:44;101034.66;;;7.71;55.08
50682;BME280;36779;52.168;20.878;2022-09-03T02:33:15;101037.98;;;7.71;55.13
50682;BME280;36779;52.168;20.878;2022-09-03T02:35:44;101040.58;;;7.79;55.37
50682;BME280;36779;52.168;20.878;2022-09-03T02:38:15;101042.81;;;7.90;55.58
50682;BME280;36779;52.168;20.878;2022-09-03T02:40:44;101046.02;;;8.02;55.82
50682;BME280;36779;52.168;20.878;2022-09-03T02:43:16;101041.74;;;8.09;55.70
50682;BME280;36779;52.168;20.878;2022-09-03T02:45:47;101042.10;;;8.05;55.49
50682;BME280;36779;52.168;20.878;2022-09-03T02:48:23;101047.85;;;7.95;55.46
50682;BME280;36779;52.168;20.878;2022-09-03T02:50:51;101046.79;;;7.89;55.41
50682;BME280;36779;52.168;20.878;2022-09-03T02:53:20;101043.69;;;7.80;55.42
50682;BME280;36779;52.168;20.878;2022-09-03T02:55:49;101043.64;;;7.67;55.33
50682;BME280;36779;52.168;20.878;2022-09-03T02:58:17;101046.52;;;7.58;55.35
50682;BME280;36779;52.168;20.878;2022-09-03T03:00:46;101043.20;;;7.51;55.40
50682;BME280;36779;52.168;20.878;2022-09-03T03:03:16;101047.40;;;7.52;55.56
50682;BME280;36779;52.168;20.878;2022-09-03T03:05:48;101045.40;;;7.57;55.84
50682;BME280;36779;52.168;20.878;2022-09-03T03:08:18;101041.02;;;7.56;55.70
50682;BME280;36779;52.168;20.878;2022-09-03T03:10:50;101041.77;;;7.53;55.73
50682;BME280;36779;52.168;20.878;2022-09-03T03:13:19;101043.23;;;7.53;55.74
50682;BME280;36779;52.168;20.878;2022-09-03T03:15:47;101042.92;;;7.51;55.80
50682;BME280;36779;52.168;20.878;2022-09-03T03:18:16;101050.11;;;7.45;55.78
50682;BME280;36779;52.168;20.878;2022-09-03T03:20:44;101051.79;;;7.40;55.91
50682;BME280;36779;52.168;20.878;2022-09-03T03:23:17;101052.23;;;7.34;55.85
50682;BME280;36779;52.168;20.878;2022-09-03T03:25:46;101053.90;;;7.28;55.89
50682;BME280;36779;52.168;20.878;2022-09-03T03:28:14;101051.90;;;7.23;55.99
50682;BME280;36779;52.168;20.878;2022-09-03T03:30:45;101055.88;;;7.17;56.09
50682;BME280;36779;52.168;20.878;2022-09-03T03:33:15;101057.52;;;7.13;56.02
50682;BME280;36779;52.168;20.878;2022-09-03T03:35:43;101057.59;;;7.09;56.12
50682;BME280;36779;52.168;20.878;2022-09-03T03:38:12;101059.83;;;7.08;56.24
50682;BME280;36779;52.168;20.878;2022-09-03T03:40:41;101057.95;;;7.05;56.07
50682;BME280;36779;52.168;20.878;2022-09-03T03:43:09;101057.34;;;7.01;56.21
50682;BME280;36779;52.168;20.878;2022-09-03T03:45:38;101058.17;;;7.00;56.30
50682;BME280;36779;52.168;20.878;2022-09-03T03:48:06;101060.70;;;6.99;56.41
50682;BME280;36779;52.168;20.878;2022-09-03T03:50:35;101059.89;;;6.98;56.53
50682;BME280;36779;52.168;20.878;2022-09-03T03:53:04;101062.06;;;6.96;56.50
50682;BME280;36779;52.168;20.878;2022-09-03T03:55:33;101061.14;;;6.92;56.49
50682;BME280;36779;52.168;20.878;2022-09-03T03:58:02;101060.58;;;6.88;56.60
50682;BME280;36779;52.168;20.878;2022-09-03T04:00:31;101060.52;;;6.86;56.72
50682;BME280;36779;52.168;20.878;2022-09-03T04:03:04;101060.11;;;6.87;56.73
50682;BME280;36779;52.168;20.878;2022-09-03T04:05:32;101063.58;;;6.90;56.76
50682;BME280;36779;52.168;20.878;2022-09-03T04:08:02;101062.88;;;6.90;56.88
50682;BME280;36779;52.168;20.878;2022-09-03T04:10:30;101065.40;;;6.91;56.86
50682;BME280;36779;52.168;20.878;2022-09-03T04:12:58;101066.38;;;6.94;56.84
50682;BME280;36779;52.168;20.878;2022-09-03T04:15:28;101063.76;;;6.96;56.89
50682;BME280;36779;52.168;20.878;2022-09-03T04:17:56;101064.27;;;6.96;56.94
50682;BME280;36779;52.168;20.878;2022-09-03T04:20:25;101066.05;;;6.94;56.93
50682;BME280;36779;52.168;20.878;2022-09-03T04:22:59;101067.25;;;6.92;57.06
50682;BME280;36779;52.168;20.878;2022-09-03T04:25:29;101069.77;;;6.92;57.09
50682;BME280;36779;52.168;20.878;2022-09-03T04:27:58;101067.77;;;6.91;57.24
50682;BME280;36779;52.168;20.878;2022-09-03T04:30:29;101068.19;;;6.90;57.17
50682;BME280;36779;52.168;20.878;2022-09-03T04:32:58;101065.70;;;6.88;57.06
50682;BME280;36779;52.168;20.878;2022-09-03T04:35:27;101069.10;;;6.87;57.18
50682;BME280;36779;52.168;20.878;2022-09-03T04:38:03;101069.79;;;6.90;57.30
50682;BME280;36779;52.168;20.878;2022-09-03T04:40:32;101068.15;;;6.92;57.33
50682;BME280;36779;52.168;20.878;2022-09-03T04:43:01;101068.65;;;6.97;57.38
50682;BME280;36779;52.168;20.878;2022-09-03T04:45:29;101073.81;;;7.08;57.67
50682;BME280;36779;52.168;20.878;2022-09-03T04:47:59;101076.77;;;7.24;57.95
50682;BME280;36779;52.168;20.878;2022-09-03T04:50:31;101082.31;;;7.38;58.14
50682;BME280;36779;52.168;20.878;2022-09-03T04:53:00;101083.15;;;7.49;58.09
50682;BME280;36779;52.168;20.878;2022-09-03T04:55:36;101082.91;;;7.50;57.89
50682;BME280;36779;52.168;20.878;2022-09-03T04:58:05;101080.73;;;7.44;57.82
50682;BME280;36779;52.168;20.878;2022-09-03T05:00:36;101086.07;;;7.42;57.71
50682;BME280;36779;52.168;20.878;2022-09-03T05:03:05;101089.08;;;7.42;57.73
50682;BME280;36779;52.168;20.878;2022-09-03T05:05:33;101092.13;;;7.48;57.90
50682;BME280;36779;52.168;20.878;2022-09-03T05:08:03;101091.08;;;7.59;58.03
50682;BME280;36779;52.168;20.878;2022-09-03T05:10:31;101096.23;;;7.69;58.06
50682;BME280;36779;52.168;20.878;2022-09-03T05:13:01;101097.38;;;7.81;58.18
50682;BME280;36779;52.168;20.878;2022-09-03T05:15:31;101094.45;;;8.01;58.31
50682;BME280;36779;52.168;20.878;2022-09-03T05:18:00;101096.39;;;8.20;58.34
50682;BME280;36779;52.168;20.878;2022-09-03T05:20:30;101092.24;;;8.36;58.45
50682;BME280;36779;52.168;20.878;2022-09-03T05:23:02;101094.36;;;8.49;58.57
50682;BME280;36779;52.168;20.878;2022-09-03T05:25:31;101095.59;;;8.59;58.40
50682;BME280;36779;52.168;20.878;2022-09-03T05:28:00;101096.69;;;8.71;58.56
50682;BME280;36779;52.168;20.878;2022-09-03T05:30:29;101097.66;;;8.85;58.60
50682;BME280;36779;52.168;20.878;2022-09-03T05:32:57;101100.15;;;8.97;58.61
50682;BME280;36779;52.168;20.878;2022-09-03T05:35:25;101102.30;;;9.08;58.57
50682;BME280;36779;52.168;20.878;2022-09-03T05:37:58;101102.26;;;9.23;58.59
50682;BME280;36779;52.168;20.878;2022-09-03T05:40:28;101103.83;;;9.57;59.17
50682;BME280;36779;52.168;20.878;2022-09-03T05:42:58;101103.48;;;10.04;59.53
50682;BME280;36779;52.168;20.878;2022-09-03T05:45:29;101102.20;;;10.76;59.96
50682;BME280;36779;52.168;20.878;2022-09-03T05:48:00;101095.20;;;11.23;59.42
50682;BME280;36779;52.168;20.878;2022-09-03T05:50:29;101093.90;;;11.29;58.86
50682;BME280;36779;52.168;20.878;2022-09-03T05:52:58;101092.63;;;11.31;58.76
50682;BME280;36779;52.168;20.878;2022-09-03T05:55:30;101088.25;;;11.34;58.57
50682;BME280;36779;52.168;20.878;2022-09-03T05:57:58;101087.56;;;11.38;58.48
50682;BME280;36779;52.168;20.878;2022-09-03T06:00:29;101085.79;;;11.40;58.29
50682;BME280;36779;52.168;20.878;2022-09-03T06:03:02;101088.98;;;11.43;58.41
50682;BME280;36779;52.168;20.878;2022-09-03T06:05:31;101084.20;;;11.47;58.36
50682;BME280;36779;52.168;20.878;2022-09-03T06:08:01;101086.45;;;11.55;58.48
50682;BME280;36779;52.168;20.878;2022-09-03T06:10:29;101089.84;;;11.64;58.39
50682;BME280;36779;52.168;20.878;2022-09-03T06:13:08;101089.48;;;11.72;58.36
50682;BME280;36779;52.168;20.878;2022-09-03T06:15:39;101087.05;;;11.79;58.10
50682;BME280;36779;52.168;20.878;2022-09-03T06:18:08;101084.02;;;11.88;58.12
50682;BME280;36779;52.168;20.878;2022-09-03T06:20:36;101082.85;;;11.98;58.27
50682;BME280;36779;52.168;20.878;2022-09-03T06:23:06;101079.59;;;12.11;58.15
50682;BME280;36779;52.168;20.878;2022-09-03T06:25:34;101080.78;;;12.26;58.22
50682;BME280;36779;52.168;20.878;2022-09-03T07:13:56;101083.89;;;14.99;56.12
50682;BME280;36779;52.168;20.878;2022-09-03T07:16:28;101084.90;;;15.06;56.19
50682;BME280;36779;52.168;20.878;2022-09-03T07:18:57;101086.58;;;15.14;56.02
50682;BME280;36779;52.168;20.878;2022-09-03T07:21:32;101089.45;;;15.20;55.77
50682;BME280;36779;52.168;20.878;2022-09-03T07:24:04;101091.64;;;15.24;55.60
50682;BME280;36779;52.168;20.878;2022-09-03T07:26:41;101089.48;;;15.34;55.68
50682;BME280;36779;52.168;20.878;2022-09-03T07:29:11;101089.02;;;15.42;55.37
50682;BME280;36779;52.168;20.878;2022-09-03T07:31:42;101095.65;;;15.53;55.53
50682;BME280;36779;52.168;20.878;2022-09-03T07:34:12;101097.34;;;15.60;55.36
50682;BME280;36779;52.168;20.878;2022-09-03T07:36:45;101097.32;;;15.68;55.14
50682;BME280;36779;52.168;20.878;2022-09-03T07:39:16;101096.05;;;15.78;54.96
50682;BME280;36779;52.168;20.878;2022-09-03T07:41:46;101099.43;;;15.89;54.92
50682;BME280;36779;52.168;20.878;2022-09-03T07:44:16;101096.31;;;15.97;54.82
50682;BME280;36779;52.168;20.878;2022-09-03T07:46:47;101095.05;;;16.06;54.73
50682;BME280;36779;52.168;20.878;2022-09-03T07:49:17;101094.55;;;16.15;54.49
50682;BME280;36779;52.168;20.878;2022-09-03T07:51:48;101094.46;;;16.24;54.23
50682;BME280;36779;52.168;20.878;2022-09-03T07:54:20;101098.02;;;16.40;54.15
50682;BME280;36779;52.168;20.878;2022-09-03T07:56:51;101095.80;;;16.49;54.01
50682;BME280;36779;52.168;20.878;2022-09-03T07:59:19;101093.98;;;16.60;53.87
50682;BME280;36779;52.168;20.878;2022-09-03T08:01:49;101093.34;;;16.73;53.77
50682;BME280;36779;52.168;20.878;2022-09-03T08:04:20;101095.08;;;16.86;53.76
50682;BME280;36779;52.168;20.878;2022-09-03T08:06:49;101096.73;;;17.04;53.48
50682;BME280;36779;52.168;20.878;2022-09-03T08:09:22;101099.50;;;17.15;53.30
50682;BME280;36779;52.168;20.878;2022-09-03T08:11:51;101100.08;;;17.23;52.97
50682;BME280;36779;52.168;20.878;2022-09-03T08:14:20;101094.33;;;17.37;53.13
50682;BME280;36779;52.168;20.878;2022-09-03T08:16:49;101093.09;;;17.60;53.00
50682;BME280;36779;52.168;20.878;2022-09-03T08:19:21;101094.58;;;17.81;52.86
50682;BME280;36779;52.168;20.878;2022-09-03T08:21:50;101092.70;;;18.05;52.79
50682;BME280;36779;52.168;20.878;2022-09-03T08:24:21;101096.64;;;18.25;52.57
50682;BME280;36779;52.168;20.878;2022-09-03T08:26:52;101093.31;;;18.47;52.35
50682;BME280;36779;52.168;20.878;2022-09-03T08:29:21;101094.02;;;18.64;52.10
50682;BME280;36779;52.168;20.878;2022-09-03T08:31:50;101089.25;;;18.81;51.85
50682;BME280;36779;52.168;20.878;2022-09-03T08:34:19;101091.98;;;19.00;51.76
50682;BME280;36779;52.168;20.878;2022-09-03T08:36:48;101085.60;;;19.40;52.09
50682;BME280;36779;52.168;20.878;2022-09-03T08:39:17;101088.83;;;20.10;52.29
50682;BME280;36779;52.168;20.878;2022-09-03T08:44:44;101080.91;;;21.71;51.85
50682;BME280;36779;52.168;20.878;2022-09-03T08:47:17;101085.27;;;22.41;51.28
50682;BME280;36779;52.168;20.878;2022-09-03T08:49:51;101080.48;;;23.10;51.12
50682;BME280;36779;52.168;20.878;2022-09-03T08:52:27;101075.02;;;23.60;50.31
50682;BME280;36779;52.168;20.878;2022-09-03T08:55:04;101073.41;;;23.97;49.75
50682;BME280;36779;52.168;20.878;2022-09-03T08:57:44;101071.16;;;24.31;49.20
50682;BME280;36779;52.168;20.878;2022-09-03T09:00:13;101068.55;;;24.59;48.94
50682;BME280;36779;52.168;20.878;2022-09-03T09:02:51;101066.35;;;24.82;48.31
50682;BME280;36779;52.168;20.878;2022-09-03T09:05:27;101063.86;;;24.99;47.79
50682;BME280;36779;52.168;20.878;2022-09-03T09:08:14;101061.60;;;25.20;47.72
50682;BME280;36779;52.168;20.878;2022-09-03T09:10:56;101060.39;;;25.56;47.67
50682;BME280;36779;52.168;20.878;2022-09-03T09:13:36;101060.58;;;25.73;47.08
50682;BME280;36779;52.168;20.878;2022-09-03T09:16:17;101061.09;;;25.82;46.77
50682;BME280;36779;52.168;20.878;2022-09-03T09:18:59;101064.79;;;25.96;46.55
50682;BME280;36779;52.168;20.878;2022-09-03T09:21:35;101060.27;;;25.92;46.01
50682;BME280;36779;52.168;20.878;2022-09-03T09:24:16;101062.50;;;25.97;45.58
50682;BME280;36779;52.168;20.878;2022-09-03T09:26:49;101059.73;;;25.95;45.26
50682;BME280;36779;52.168;20.878;2022-09-03T09:29:20;101061.48;;;25.92;44.95
50682;BME280;36779;52.168;20.878;2022-09-03T09:31:48;101068.23;;;26.03;45.06
50682;BME280;36779;52.168;20.878;2022-09-03T09:34:17;101063.83;;;26.26;44.92
50682;BME280;36779;52.168;20.878;2022-09-03T09:36:48;101064.40;;;26.45;44.56
50682;BME280;36779;52.168;20.878;2022-09-03T09:39:19;101061.65;;;26.59;44.31
50682;BME280;36779;52.168;20.878;2022-09-03T09:41:58;101065.22;;;26.60;43.99
50682;BME280;36779;52.168;20.878;2022-09-03T09:44:29;101064.39;;;26.70;43.83
50682;BME280;36779;52.168;20.878;2022-09-03T09:47:03;101066.90;;;26.83;43.65
50682;BME280;36779;52.168;20.878;2022-09-03T09:49:37;101053.41;;;27.14;43.75
50682;BME280;36779;52.168;20.878;2022-09-03T09:52:14;101053.60;;;27.31;43.25
50682;BME280;36779;52.168;20.878;2022-09-03T09:54:49;101048.09;;;27.33;42.83
50682;BME280;36779;52.168;20.878;2022-09-03T09:57:22;101053.31;;;27.45;42.76
50682;BME280;36779;52.168;20.878;2022-09-03T10:00:02;101051.27;;;27.34;42.20
50682;BME280;36779;52.168;20.878;2022-09-03T10:02:45;101054.80;;;27.25;41.74
50682;BME280;36779;52.168;20.878;2022-09-03T10:05:19;101061.42;;;27.04;41.54
50682;BME280;36779;52.168;20.878;2022-09-03T10:07:56;101050.74;;;27.04;41.58
50682;BME280;36779;52.168;20.878;2022-09-03T10:10:25;101044.77;;;27.23;41.68
50682;BME280;36779;52.168;20.878;2022-09-03T10:12:59;101048.05;;;27.30;41.12
50682;BME280;36779;52.168;20.878;2022-09-03T10:15:34;101043.88;;;27.23;41.04
50682;BME280;36779;52.168;20.878;2022-09-03T10:18:13;101044.92;;;27.34;40.95
50682;BME280;36779;52.168;20.878;2022-09-03T10:20:46;101042.39;;;27.48;40.84
50682;BME280;36779;52.168;20.878;2022-09-03T10:23:21;101046.87;;;27.65;40.73
50682;BME280;36779;52.168;20.878;2022-09-03T10:26:01;101041.08;;;27.71;40.45
50682;BME280;36779;52.168;20.878;2022-09-03T10:28:36;101038.23;;;27.71;40.17
50682;BME280;36779;52.168;20.878;2022-09-03T10:31:19;101034.52;;;27.74;39.94
50682;BME280;36779;52.168;20.878;2022-09-03T10:34:00;101033.31;;;27.67;39.68
50682;BME280;36779;52.168;20.878;2022-09-03T10:36:35;101031.33;;;27.53;39.36
50682;BME280;36779;52.168;20.878;2022-09-03T10:39:09;101027.30;;;27.33;39.16
50682;BME280;36779;52.168;20.878;2022-09-03T10:41:48;101023.31;;;27.20;38.99
50682;BME280;36779;52.168;20.878;2022-09-03T10:44:38;101022.27;;;27.22;39.06
50682;BME280;36779;52.168;20.878;2022-09-03T10:47:23;101019.33;;;27.30;39.00
50682;BME280;36779;52.168;20.878;2022-09-03T10:50:06;101020.27;;;27.31;38.77
50682;BME280;36779;52.168;20.878;2022-09-03T10:52:44;101020.52;;;27.40;38.86
50682;BME280;36779;52.168;20.878;2022-09-03T10:55:27;101016.75;;;27.65;38.97
50682;BME280;36779;52.168;20.878;2022-09-03T10:58:13;101011.32;;;27.75;38.48
50682;BME280;36779;52.168;20.878;2022-09-03T11:00:50;101010.52;;;27.60;38.22
50682;BME280;36779;52.168;20.878;2022-09-03T11:03:43;101011.23;;;27.49;38.07
50682;BME280;36779;52.168;20.878;2022-09-03T11:06:18;101009.94;;;27.33;38.07
50682;BME280;36779;52.168;20.878;2022-09-03T11:08:53;101007.98;;;27.40;38.08
50682;BME280;36779;52.168;20.878;2022-09-03T11:11:30;101003.56;;;27.42;37.88
50682;BME280;36779;52.168;20.878;2022-09-03T11:14:05;101001.70;;;27.48;37.70
50682;BME280;36779;52.168;20.878;2022-09-03T11:16:44;100997.41;;;27.58;37.74
50682;BME280;36779;52.168;20.878;2022-09-03T11:19:16;100998.23;;;27.71;37.62
50682;BME280;36779;52.168;20.878;2022-09-03T11:21:47;100999.54;;;27.74;37.36
50682;BME280;36779;52.168;20.878;2022-09-03T11:24:21;100992.00;;;27.59;36.99
50682;BME280;36779;52.168;20.878;2022-09-03T11:26:54;100987.58;;;27.49;36.78
50682;BME280;36779;52.168;20.878;2022-09-03T11:29:32;100992.30;;;27.37;36.85
50682;BME280;36779;52.168;20.878;2022-09-03T11:32:07;100993.91;;;27.35;36.86
50682;BME280;36779;52.168;20.878;2022-09-03T11:34:46;100996.74;;;27.44;36.90
50682;BME280;36779;52.168;20.878;2022-09-03T11:37:21;100993.52;;;27.63;37.04
50682;BME280;36779;52.168;20.878;2022-09-03T11:39:56;100990.50;;;27.71;36.78
50682;BME280;36779;52.168;20.878;2022-09-03T11:42:34;100990.20;;;27.61;36.48
50682;BME280;36779;52.168;20.878;2022-09-03T11:45:20;100988.79;;;27.38;36.34
50682;BME280;36779;52.168;20.878;2022-09-03T11:47:51;100988.20;;;27.26;36.30
50682;BME280;36779;52.168;20.878;2022-09-03T11:50:22;100982.27;;;27.11;36.04
50682;BME280;36779;52.168;20.878;2022-09-03T11:52:54;100978.86;;;26.86;36.15
50682;BME280;36779;52.168;20.878;2022-09-03T11:55:30;100979.38;;;26.69;35.93
50682;BME280;36779;52.168;20.878;2022-09-03T11:58:18;100980.60;;;26.46;35.93
50682;BME280;36779;52.168;20.878;2022-09-03T12:00:49;100975.02;;;26.38;36.08
50682;BME280;36779;52.168;20.878;2022-09-03T12:03:27;100977.63;;;26.29;35.92
50682;BME280;36779;52.168;20.878;2022-09-03T12:06:16;100971.35;;;26.06;35.80
50682;BME280;36779;52.168;20.878;2022-09-03T12:08:59;100972.03;;;25.93;35.78
50682;BME280;36779;52.168;20.878;2022-09-03T12:11:44;100968.10;;;25.80;35.78
50682;BME280;36779;52.168;20.878;2022-09-03T12:14:23;100967.17;;;25.71;35.69
50682;BME280;36779;52.168;20.878;2022-09-03T12:17:15;100964.88;;;25.58;35.65
50682;BME280;36779;52.168;20.878;2022-09-03T12:19:49;100958.41;;;25.36;35.58
50682;BME280;36779;52.168;20.878;2022-09-03T12:22:21;100949.82;;;25.17;35.59
50682;BME280;36779;52.168;20.878;2022-09-03T12:24:53;100944.38;;;25.01;35.50
50682;BME280;36779;52.168;20.878;2022-09-03T12:27:24;100940.13;;;24.84;35.38
50682;BME280;36779;52.168;20.878;2022-09-03T12:29:55;100935.20;;;24.83;35.59
50682;BME280;36779;52.168;20.878;2022-09-03T12:32:28;100938.57;;;24.88;35.67
50682;BME280;36779;52.168;20.878;2022-09-03T12:35:10;100937.52;;;24.82;35.69
50682;BME280;36779;52.168;20.878;2022-09-03T12:37:44;100934.02;;;24.84;35.70
50682;BME280;36779;52.168;20.878;2022-09-03T12:40:33;100929.23;;;24.84;35.68
50682;BME280;36779;52.168;20.878;2022-09-03T12:43:13;100931.27;;;24.77;35.49
50682;BME280;36779;52.168;20.878;2022-09-03T12:46:02;100923.84;;;24.68;35.49
50682;BME280;36779;52.168;20.878;2022-09-03T12:48:51;100926.83;;;24.51;35.38
50682;BME280;36779;52.168;20.878;2022-09-03T12:51:41;100925.10;;;24.25;35.24
50682;BME280;36779;52.168;20.878;2022-09-03T12:54:18;100924.03;;;24.08;35.38
50682;BME280;36779;52.168;20.878;2022-09-03T12:56:52;100922.71;;;24.03;35.35
50682;BME280;36779;52.168;20.878;2022-09-03T12:59:22;100915.03;;;24.03;35.37
50682;BME280;36779;52.168;20.878;2022-09-03T13:01:56;100912.27;;;23.98;35.29
50682;BME280;36779;52.168;20.878;2022-09-03T13:04:32;100914.81;;;23.90;35.25
50682;BME280;36779;52.168;20.878;2022-09-03T13:07:04;100914.86;;;23.85;35.29
50682;BME280;36779;52.168;20.878;2022-09-03T13:09:39;100916.29;;;23.86;35.18
50682;BME280;36779;52.168;20.878;2022-09-03T13:12:22;100911.14;;;23.85;35.25
50682;BME280;36779;52.168;20.878;2022-09-03T13:14:51;100912.05;;;23.74;35.13
50682;BME280;36779;52.168;20.878;2022-09-03T13:17:47;100905.87;;;23.49;34.91
50682;BME280;36779;52.168;20.878;2022-09-03T13:20:32;100901.48;;;23.39;35.11
50682;BME280;36779;52.168;20.878;2022-09-03T13:23:30;100896.55;;;23.38;34.98
50682;BME280;36779;52.168;20.878;2022-09-03T13:26:12;100891.07;;;23.34;35.05
50682;BME280;36779;52.168;20.878;2022-09-03T13:28:54;100891.27;;;23.26;34.97
50682;BME280;36779;52.168;20.878;2022-09-03T13:31:31;100892.01;;;23.11;34.81
50682;BME280;36779;52.168;20.878;2022-09-03T13:34:05;100895.36;;;22.99;34.86
50682;BME280;36779;52.168;20.878;2022-09-03T13:36:43;100892.23;;;22.96;34.85
50682;BME280;36779;52.168;20.878;2022-09-03T13:39:21;100893.41;;;22.95;34.90
50682;BME280;36779;52.168;20.878;2022-09-03T13:41:55;100893.11;;;22.96;34.91
50682;BME280;36779;52.168;20.878;2022-09-03T13:44:35;100890.15;;;22.95;34.91
50682;BME280;36779;52.168;20.878;2022-09-03T13:47:11;100893.13;;;22.93;34.87
50682;BME280;36779;52.168;20.878;2022-09-03T13:49:52;100895.04;;;22.92;34.79
50682;BME280;36779;52.168;20.878;2022-09-03T13:52:46;100888.94;;;22.91;35.02
50682;BME280;36779;52.168;20.878;2022-09-03T13:55:31;100889.55;;;22.93;34.82
50682;BME280;36779;52.168;20.878;2022-09-03T13:58:06;100888.13;;;22.93;34.88
50682;BME280;36779;52.168;20.878;2022-09-03T14:00:42;100881.44;;;22.86;34.74
50682;BME280;36779;52.168;20.878;2022-09-03T14:03:28;100877.19;;;22.79;34.76
50682;BME280;36779;52.168;20.878;2022-09-03T14:06:06;100882.17;;;22.69;34.67
50682;BME280;36779;52.168;20.878;2022-09-03T14:09:00;100878.40;;;22.58;34.71
50682;BME280;36779;52.168;20.878;2022-09-03T14:11:52;100878.11;;;22.51;34.80